OCN112 EDDF-LEPA
Flight info
| Callsign | OCN112 |
|---|---|
| Flight time | N/A |
| Altitude | 35000 |
| Route | ANEKI2L ANEKI Y163 HERBI Y164 MOPAN DCT LUTIX DCT BENOT DCT NEMOS DCT GEVEA DCT INCUS DCT BALSI DCT RETNO DCT TUPOX DCT MTG DCT DIVKO DCT VATIR DCT PIVUS N852 VERSO L129 LUNIK |
| Aircraft | A320/M-SDE3FGHIRWY/LB1 |
Departure
| Time | 2026-05-07 11:59 |
|---|---|
| Airport | Frankfurt Main Airport (EDDF) |
Arrival
| Time | N/A |
|---|---|
| Airport | Palma de Mallorca Airport (LEPA) |
| Time | Latitude | Longitude | Altitude | Speed | Heading |
|---|---|---|---|---|---|
| 2026-05-07 11:23 | 50.03586 | 8.53659 | 346 ft | 0 kts | 160° |
| 2026-05-07 11:54 | 50.03583 | 8.53660 | 345 ft | 3 kts | 160° |
| 2026-05-07 11:55 | 50.03517 | 8.53685 | 352 ft | 11 kts | 198° |
| 2026-05-07 11:55 | 50.03481 | 8.53575 | 349 ft | 15 kts | 249° |
| 2026-05-07 11:55 | 50.03440 | 8.53402 | 352 ft | 18 kts | 249° |
| 2026-05-07 11:55 | 50.03395 | 8.53215 | 348 ft | 19 kts | 250° |
| 2026-05-07 11:56 | 50.03348 | 8.53016 | 351 ft | 20 kts | 250° |
| 2026-05-07 11:56 | 50.03307 | 8.52851 | 345 ft | 15 kts | 249° |
| 2026-05-07 11:56 | 50.03283 | 8.52749 | 353 ft | 8 kts | 250° |
| 2026-05-07 11:56 | 50.03263 | 8.52675 | 350 ft | 7 kts | 241° |
| 2026-05-07 11:57 | 50.03222 | 8.52601 | 345 ft | 8 kts | 213° |
| 2026-05-07 11:57 | 50.03174 | 8.52596 | 353 ft | 6 kts | 174° |
| 2026-05-07 11:57 | 50.03159 | 8.52596 | 345 ft | 0 kts | 180° |
| 2026-05-07 11:58 | 50.03147 | 8.52596 | 345 ft | 9 kts | 180° |
| 2026-05-07 11:58 | 50.02852 | 8.52599 | 351 ft | 78 kts | 180° |
| 2026-05-07 11:58 | 50.02103 | 8.52606 | 346 ft | 135 kts | 179° |
| 2026-05-07 11:59 | 50.01010 | 8.52619 | 406 ft | 173 kts | 179° |
| 2026-05-07 11:59 | 49.99806 | 8.52666 | 1065 ft | 173 kts | 178° |
| 2026-05-07 11:59 | 49.98589 | 8.52755 | 1687 ft | 181 kts | 178° |
| 2026-05-07 11:59 | 49.97254 | 8.52866 | 1955 ft | 203 kts | 178° |
| 2026-05-07 12:00 | 49.95758 | 8.52974 | 2300 ft | 221 kts | 178° |
| 2026-05-07 12:00 | 49.94232 | 8.53088 | 3020 ft | 225 kts | 178° |
| 2026-05-07 12:00 | 49.92649 | 8.53221 | 3718 ft | 231 kts | 179° |
| 2026-05-07 12:00 | 49.91025 | 8.53332 | 4449 ft | 235 kts | 179° |
| 2026-05-07 12:01 | 49.89374 | 8.53434 | 5208 ft | 239 kts | 180° |
| 2026-05-07 12:01 | 49.87702 | 8.53534 | 5966 ft | 242 kts | 180° |
| 2026-05-07 12:01 | 49.86012 | 8.53638 | 6703 ft | 245 kts | 180° |
| 2026-05-07 12:01 | 49.84292 | 8.53745 | 7439 ft | 249 kts | 180° |
| 2026-05-07 12:02 | 49.82552 | 8.53856 | 8169 ft | 252 kts | 180° |
| 2026-05-07 12:02 | 49.80785 | 8.53973 | 8890 ft | 256 kts | 179° |
| 2026-05-07 12:02 | 49.78999 | 8.54093 | 9617 ft | 259 kts | 180° |
| 2026-05-07 12:02 | 49.77184 | 8.54033 | 10208 ft | 268 kts | 187° |
| 2026-05-07 12:03 | 49.75246 | 8.53776 | 10462 ft | 291 kts | 187° |
| 2026-05-07 12:03 | 49.73147 | 8.53486 | 10680 ft | 314 kts | 187° |
| 2026-05-07 12:03 | 49.70887 | 8.53175 | 10865 ft | 338 kts | 187° |
| 2026-05-07 12:03 | 49.68467 | 8.52849 | 11006 ft | 360 kts | 187° |
| 2026-05-07 12:04 | 49.65907 | 8.52509 | 11334 ft | 374 kts | 187° |
| 2026-05-07 12:04 | 49.63293 | 8.52167 | 11943 ft | 379 kts | 187° |
| 2026-05-07 12:04 | 49.60656 | 8.51822 | 12587 ft | 382 kts | 187° |
| 2026-05-07 12:04 | 49.58893 | 8.51590 | 13003 ft | 384 kts | 187° |
| 2026-05-07 12:05 | 49.56217 | 8.51241 | 13618 ft | 387 kts | 187° |
| 2026-05-07 12:05 | 49.53518 | 8.50889 | 14216 ft | 391 kts | 187° |
| 2026-05-07 12:05 | 49.50803 | 8.50530 | 14793 ft | 393 kts | 187° |
| 2026-05-07 12:05 | 49.48069 | 8.50168 | 15347 ft | 396 kts | 186° |
| 2026-05-07 12:06 | 49.45306 | 8.49808 | 15888 ft | 399 kts | 186° |
| 2026-05-07 12:06 | 49.42527 | 8.49448 | 16412 ft | 402 kts | 186° |
| 2026-05-07 12:06 | 49.39736 | 8.49087 | 16923 ft | 404 kts | 186° |
| 2026-05-07 12:06 | 49.36924 | 8.48723 | 17436 ft | 407 kts | 186° |
| 2026-05-07 12:07 | 49.34092 | 8.48352 | 17909 ft | 410 kts | 186° |
| 2026-05-07 12:07 | 49.31242 | 8.47977 | 18386 ft | 412 kts | 186° |
| 2026-05-07 12:07 | 49.28377 | 8.47601 | 18842 ft | 415 kts | 186° |
| 2026-05-07 12:07 | 49.25491 | 8.47225 | 19290 ft | 417 kts | 186° |
| 2026-05-07 12:08 | 49.22592 | 8.46848 | 19727 ft | 420 kts | 186° |
| 2026-05-07 12:08 | 49.19669 | 8.46471 | 20150 ft | 423 kts | 186° |
| 2026-05-07 12:08 | 49.16726 | 8.46089 | 20567 ft | 425 kts | 186° |
| 2026-05-07 12:08 | 49.13771 | 8.45705 | 20972 ft | 428 kts | 186° |
| 2026-05-07 12:09 | 49.10797 | 8.45324 | 21361 ft | 430 kts | 186° |
| 2026-05-07 12:09 | 49.07807 | 8.44941 | 21734 ft | 432 kts | 186° |
| 2026-05-07 12:09 | 49.04832 | 8.44230 | 22090 ft | 434 kts | 194° |
| 2026-05-07 12:09 | 49.01885 | 8.43187 | 22445 ft | 436 kts | 194° |
| 2026-05-07 12:10 | 48.98922 | 8.42144 | 22792 ft | 438 kts | 194° |
| 2026-05-07 12:10 | 48.95978 | 8.41115 | 23132 ft | 440 kts | 194° |
| 2026-05-07 12:10 | 48.92980 | 8.40072 | 23473 ft | 443 kts | 194° |
| 2026-05-07 12:10 | 48.89971 | 8.39028 | 23815 ft | 445 kts | 194° |
| 2026-05-07 12:11 | 48.86944 | 8.37982 | 24137 ft | 447 kts | 194° |
| 2026-05-07 12:11 | 48.83900 | 8.36931 | 24451 ft | 449 kts | 194° |
| 2026-05-07 12:11 | 48.80844 | 8.35874 | 24767 ft | 452 kts | 194° |
| 2026-05-07 12:11 | 48.77774 | 8.34809 | 25048 ft | 454 kts | 194° |
| 2026-05-07 12:12 | 48.74693 | 8.33717 | 25326 ft | 456 kts | 194° |
| 2026-05-07 12:12 | 48.71609 | 8.32599 | 25592 ft | 457 kts | 195° |
| 2026-05-07 12:12 | 48.68481 | 8.31446 | 25860 ft | 459 kts | 195° |
| 2026-05-07 12:12 | 48.65403 | 8.30304 | 26116 ft | 461 kts | 195° |
| 2026-05-07 12:13 | 48.62277 | 8.29147 | 26369 ft | 463 kts | 195° |
| 2026-05-07 12:13 | 48.59137 | 8.27997 | 26622 ft | 465 kts | 195° |
| 2026-05-07 12:13 | 48.55976 | 8.26849 | 26886 ft | 467 kts | 195° |
| 2026-05-07 12:13 | 48.52820 | 8.25708 | 27240 ft | 466 kts | 195° |
| 2026-05-07 12:14 | 48.49671 | 8.24571 | 27598 ft | 465 kts | 195° |
| 2026-05-07 12:14 | 48.46517 | 8.23433 | 27929 ft | 464 kts | 195° |
| 2026-05-07 12:14 | 48.43386 | 8.22293 | 28254 ft | 464 kts | 195° |
| 2026-05-07 12:14 | 48.40247 | 8.21144 | 28589 ft | 464 kts | 195° |
| 2026-05-07 12:15 | 48.37112 | 8.19994 | 28915 ft | 463 kts | 195° |
| 2026-05-07 12:15 | 48.33979 | 8.18851 | 29216 ft | 463 kts | 195° |
| 2026-05-07 12:15 | 48.30846 | 8.17711 | 29519 ft | 463 kts | 195° |
| 2026-05-07 12:15 | 48.27757 | 8.16588 | 29829 ft | 463 kts | 195° |
| 2026-05-07 12:16 | 48.24666 | 8.15262 | 30139 ft | 461 kts | 201° |
| 2026-05-07 12:16 | 48.21739 | 8.13322 | 30451 ft | 459 kts | 208° |
| 2026-05-07 12:16 | 48.18882 | 8.11181 | 30785 ft | 458 kts | 208° |
| 2026-05-07 12:16 | 48.16031 | 8.09059 | 31130 ft | 457 kts | 208° |
| 2026-05-07 12:17 | 48.13184 | 8.06953 | 31478 ft | 455 kts | 207° |
| 2026-05-07 12:17 | 48.10345 | 8.04866 | 31818 ft | 454 kts | 207° |
| 2026-05-07 12:17 | 48.07516 | 8.02791 | 32161 ft | 452 kts | 207° |
| 2026-05-07 12:17 | 48.04692 | 8.00720 | 32504 ft | 451 kts | 207° |
| 2026-05-07 12:18 | 48.01882 | 7.98660 | 32846 ft | 449 kts | 207° |
| 2026-05-07 12:18 | 47.99084 | 7.96610 | 33185 ft | 447 kts | 207° |
| 2026-05-07 12:18 | 47.96295 | 7.94565 | 33503 ft | 446 kts | 208° |
| 2026-05-07 12:18 | 47.93516 | 7.92525 | 33825 ft | 444 kts | 208° |
| 2026-05-07 12:19 | 47.90751 | 7.90494 | 34116 ft | 443 kts | 208° |
| 2026-05-07 12:19 | 47.87987 | 7.88468 | 34418 ft | 442 kts | 208° |
| 2026-05-07 12:19 | 47.85231 | 7.86454 | 34715 ft | 441 kts | 207° |
| 2026-05-07 12:19 | 47.82483 | 7.84453 | 34976 ft | 440 kts | 208° |
| 2026-05-07 12:20 | 47.79729 | 7.82451 | 35239 ft | 440 kts | 208° |
| 2026-05-07 12:20 | 47.77021 | 7.80483 | 35489 ft | 439 kts | 208° |
| 2026-05-07 12:20 | 47.74280 | 7.78489 | 35725 ft | 438 kts | 208° |
| 2026-05-07 12:20 | 47.71541 | 7.76502 | 35942 ft | 438 kts | 208° |
| 2026-05-07 12:21 | 47.68796 | 7.74513 | 36042 ft | 440 kts | 208° |